Time,TemperatureF,DewpointF,PressureIn,WindDirection,WindDirectionDegrees,WindSpeedMPH,WindSpeedGustMPH,Humidity,HourlyPrecipIn,Conditions,Clouds,dailyrainin,SoftwareType,DateUTC
2013-09-21 00:08:00,59.1,56.0,29.91,NW,316,0.0,0.0,88,0.00,,,0.00,weatherlink.com 1.10,2013-09-21 04:08:00,
2013-09-21 00:23:00,57.6,55.0,29.91,NW,316,0.0,0.0,90,0.00,,,0.00,weatherlink.com 1.10,2013-09-21 04:23:00,
2013-09-21 00:38:00,56.8,55.0,29.91,NW,316,0.0,0.0,92,0.00,,,0.00,weatherlink.com 1.10,2013-09-21 04:38:00,
2013-09-21 00:53:00,56.5,55.0,29.91,NW,316,0.0,0.0,93,0.00,,,0.00,weatherlink.com 1.10,2013-09-21 04:53:00,
2013-09-21 01:08:00,56.7,55.0,29.91,NW,316,0.0,0.0,94,0.00,,,0.00,weatherlink.com 1.10,2013-09-21 05:08:00,
2013-09-21 01:24:00,56.4,55.0,29.92,NW,316,0.0,0.0,93,0.00,,,0.00,weatherlink.com 1.10,2013-09-21 05:24:00,
2013-09-21 01:39:00,56.2,54.0,29.92,NW,316,0.0,0.0,93,0.00,,,0.00,weatherlink.com 1.10,2013-09-21 05:39:00,
2013-09-21 01:54:00,55.9,54.0,29.91,NW,316,0.0,0.0,92,0.00,,,0.00,weatherlink.com 1.10,2013-09-21 05:54:00,
2013-09-21 02:09:00,55.5,54.0,29.91,NW,316,0.0,0.0,94,0.00,,,0.00,weatherlink.com 1.10,2013-09-21 06:09:00,
2013-09-21 02:24:00,55.3,54.0,29.92,NW,316,0.0,0.0,94,0.00,,,0.00,weatherlink.com 1.10,2013-09-21 06:24:00,
2013-09-21 02:39:00,55.6,54.0,29.92,NW,316,0.0,0.0,93,0.00,,,0.00,weatherlink.com 1.10,2013-09-21 06:39:00,
2013-09-21 02:54:00,55.6,54.0,29.91,NW,316,0.0,0.0,93,0.00,,,0.00,weatherlink.com 1.10,2013-09-21 06:54:00,
2013-09-21 03:09:00,54.9,53.0,29.91,NW,316,0.0,0.0,93,0.00,,,0.00,weatherlink.com 1.10,2013-09-21 07:09:00,
2013-09-21 03:24:00,54.7,53.0,29.90,NW,316,0.0,0.0,95,0.00,,,0.00,weatherlink.com 1.10,2013-09-21 07:24:00,
2013-09-21 03:39:00,54.7,53.0,29.90,NW,316,0.0,0.0,94,0.00,,,0.00,weatherlink.com 1.10,2013-09-21 07:39:00,
2013-09-21 03:54:00,54.7,53.0,29.89,NW,316,0.0,0.0,95,0.00,,,0.00,weatherlink.com 1.10,2013-09-21 07:54:00,
2013-09-21 04:09:00,54.0,52.0,29.89,NW,316,0.0,0.0,94,0.00,,,0.00,weatherlink.com 1.10,2013-09-21 08:09:00,
2013-09-21 04:24:00,53.6,53.0,29.88,NW,316,0.0,0.0,96,0.00,,,0.00,weatherlink.com 1.10,2013-09-21 08:24:00,
2013-09-21 04:39:00,53.2,52.0,29.88,NW,316,0.0,1.0,95,0.00,,,0.00,weatherlink.com 1.10,2013-09-21 08:39:00,
2013-09-21 04:54:00,52.8,52.0,29.86,NW,316,0.0,0.0,96,0.00,,,0.00,weatherlink.com 1.10,2013-09-21 08:54:00,
2013-09-21 05:09:00,52.3,51.0,29.86,NW,316,0.0,0.0,96,0.00,,,0.00,weatherlink.com 1.10,2013-09-21 09:09:00,
2013-09-21 05:24:00,52.0,51.0,29.87,NW,316,0.0,0.0,97,0.00,,,0.00,weatherlink.com 1.10,2013-09-21 09:24:00,
2013-09-21 05:39:00,52.5,52.0,29.87,NW,316,0.0,0.0,97,0.00,,,0.00,weatherlink.com 1.10,2013-09-21 09:39:00,
2013-09-21 05:54:00,52.2,51.0,29.86,NW,316,0.0,0.0,96,0.00,,,0.00,weatherlink.com 1.10,2013-09-21 09:54:00,
2013-09-21 06:09:00,51.9,51.0,29.87,NW,316,0.0,0.0,96,0.00,,,0.00,weatherlink.com 1.10,2013-09-21 10:09:00,
2013-09-21 06:24:00,52.9,52.0,29.87,NW,316,0.0,0.0,98,0.00,,,0.00,weatherlink.com 1.10,2013-09-21 10:24:00,
2013-09-21 06:39:00,53.2,53.0,29.87,NW,316,0.0,0.0,98,0.00,,,0.00,weatherlink.com 1.10,2013-09-21 10:39:00,
2013-09-21 06:54:00,53.3,53.0,29.86,NW,316,0.0,0.0,97,0.00,,,0.00,weatherlink.com 1.10,2013-09-21 10:54:00,
2013-09-21 07:09:00,53.1,52.0,29.86,NW,316,0.0,0.0,97,0.00,,,0.00,weatherlink.com 1.10,2013-09-21 11:09:00,
2013-09-21 07:24:00,53.4,53.0,29.85,NW,316,0.0,0.0,98,0.00,,,0.00,weatherlink.com 1.10,2013-09-21 11:24:00,
2013-09-21 07:39:00,53.6,53.0,29.85,NW,316,0.0,0.0,97,0.00,,,0.00,weatherlink.com 1.10,2013-09-21 11:39:00,
2013-09-21 07:54:00,53.5,53.0,29.85,NW,316,0.0,0.0,97,0.00,,,0.00,weatherlink.com 1.10,2013-09-21 11:54:00,
2013-09-21 08:09:00,53.4,53.0,29.85,NW,316,0.0,0.0,97,0.00,,,0.00,weatherlink.com 1.10,2013-09-21 12:09:00,
2013-09-21 08:24:00,53.3,53.0,29.85,SSW,200,0.0,2.0,97,0.00,,,0.00,weatherlink.com 1.10,2013-09-21 12:24:00,
2013-09-21 08:40:00,53.4,53.0,29.84,SSW,201,0.0,1.0,97,0.00,,,0.00,weatherlink.com 1.10,2013-09-21 12:40:00,
2013-09-21 08:54:00,54.0,53.0,29.84,SSW,201,0.0,2.0,97,0.00,,,0.00,weatherlink.com 1.10,2013-09-21 12:54:00,
2013-09-21 09:09:00,54.9,54.0,29.84,SSW,200,0.0,3.0,96,0.00,,,0.00,weatherlink.com 1.10,2013-09-21 13:09:00,
2013-09-21 09:24:00,55.9,55.0,29.84,SW,217,1.0,3.0,95,0.00,,,0.00,weatherlink.com 1.10,2013-09-21 13:24:00,
2013-09-21 09:39:00,57.2,55.0,29.84,SSW,204,1.0,6.0,92,0.00,,,0.00,weatherlink.com 1.10,2013-09-21 13:39:00,
2013-09-21 09:54:00,58.9,55.0,29.83,South,169,4.0,5.0,87,0.00,,,0.00,weatherlink.com 1.10,2013-09-21 13:54:00,
2013-09-21 10:09:00,59.6,55.0,29.82,WSW,251,0.0,5.0,85,0.00,,,0.00,weatherlink.com 1.10,2013-09-21 14:09:00,
2013-09-21 10:24:00,60.4,54.0,29.81,South,191,1.0,3.0,80,0.00,,,0.00,weatherlink.com 1.10,2013-09-21 14:24:00,
2013-09-21 10:40:00,61.3,54.0,29.81,South,189,0.0,3.0,78,0.00,,,0.00,weatherlink.com 1.10,2013-09-21 14:40:00,
2013-09-21 10:55:00,62.3,54.0,29.80,SW,230,0.0,4.0,74,0.00,,,0.00,weatherlink.com 1.10,2013-09-21 14:55:00,
2013-09-21 11:10:00,63.1,54.0,29.79,West,261,0.0,2.0,72,0.00,,,0.00,weatherlink.com 1.10,2013-09-21 15:10:00,
2013-09-21 11:25:00,63.9,54.0,29.78,SW,235,0.0,3.0,70,0.00,,,0.00,weatherlink.com 1.10,2013-09-21 15:25:00,
2013-09-21 11:40:00,64.7,54.0,29.78,SE,145,2.0,3.0,69,0.00,,,0.00,weatherlink.com 1.10,2013-09-21 15:40:00,
2013-09-21 11:55:00,65.5,53.0,29.77,SSW,204,2.0,4.0,65,0.00,,,0.00,weatherlink.com 1.10,2013-09-21 15:55:00,
2013-09-21 12:10:00,66.5,52.0,29.77,SSW,203,1.0,5.0,61,0.00,,,0.00,weatherlink.com 1.10,2013-09-21 16:10:00,
2013-09-21 12:25:00,67.4,51.0,29.76,SW,231,1.0,5.0,56,0.00,,,0.00,weatherlink.com 1.10,2013-09-21 16:25:00,
2013-09-21 12:40:00,68.4,51.0,29.76,NW,307,1.0,10.0,55,0.00,,,0.00,weatherlink.com 1.10,2013-09-21 16:40:00,
2013-09-21 12:55:00,68.9,54.0,29.75,West,259,1.0,3.0,60,0.00,,,0.00,weatherlink.com 1.10,2013-09-21 16:55:00,
2013-09-21 13:10:00,69.6,54.0,29.74,ENE,61,1.0,4.0,57,0.00,,,0.00,weatherlink.com 1.10,2013-09-21 17:10:00,
2013-09-21 13:25:00,69.9,54.0,29.73,WNW,288,4.0,5.0,58,0.00,,,0.00,weatherlink.com 1.10,2013-09-21 17:25:00,
2013-09-21 13:40:00,69.9,54.0,29.72,SSW,194,2.0,8.0,57,0.00,,,0.00,weatherlink.com 1.10,2013-09-21 17:40:00,
2013-09-21 13:55:00,70.6,54.0,29.72,South,180,0.0,9.0,57,0.00,,,0.00,weatherlink.com 1.10,2013-09-21 17:55:00,
2013-09-21 14:10:00,71.0,54.0,29.72,West,267,6.0,9.0,55,0.00,,,0.00,weatherlink.com 1.10,2013-09-21 18:10:00,
2013-09-21 14:25:00,71.6,54.0,29.71,South,176,1.0,9.0,55,0.00,,,0.00,weatherlink.com 1.10,2013-09-21 18:25:00,
2013-09-21 14:40:00,71.6,54.0,29.70,SW,220,2.0,13.0,55,0.00,,,0.00,weatherlink.com 1.10,2013-09-21 18:40:00,
2013-09-21 14:55:00,72.3,57.0,29.69,SW,232,0.0,8.0,58,0.00,,,0.00,weatherlink.com 1.10,2013-09-21 18:55:00,
2013-09-21 15:10:00,71.9,57.0,29.69,SSW,209,0.0,8.0,59,0.00,,,0.00,weatherlink.com 1.10,2013-09-21 19:10:00,
2013-09-21 15:25:00,71.9,58.0,29.68,SSW,198,3.0,9.0,61,0.00,,,0.00,weatherlink.com 1.10,2013-09-21 19:25:00,
2013-09-21 15:40:00,71.3,58.0,29.68,SSE,166,1.0,6.0,63,0.00,,,0.00,weatherlink.com 1.10,2013-09-21 19:40:00,
2013-09-21 15:56:00,70.8,57.0,29.67,SSW,207,5.0,7.0,63,0.00,,,0.00,weatherlink.com 1.10,2013-09-21 19:56:00,
2013-09-21 16:11:00,70.2,57.0,29.67,South,175,1.0,11.0,63,0.00,,,0.00,weatherlink.com 1.10,2013-09-21 20:11:00,
2013-09-21 16:26:00,70.4,58.0,29.66,NNW,332,2.0,7.0,64,0.00,,,0.00,weatherlink.com 1.10,2013-09-21 20:26:00,
2013-09-21 16:41:00,70.3,57.0,29.66,South,181,1.0,8.0,64,0.00,,,0.00,weatherlink.com 1.10,2013-09-21 20:41:00,
2013-09-21 16:56:00,70.0,59.0,29.66,SW,225,2.0,9.0,68,0.00,,,0.00,weatherlink.com 1.10,2013-09-21 20:56:00,
2013-09-21 17:11:00,69.0,59.0,29.66,NW,312,0.0,8.0,71,0.00,,,0.00,weatherlink.com 1.10,2013-09-21 21:11:00,
2013-09-21 17:26:00,68.2,59.0,29.67,SSW,192,0.0,7.0,73,0.00,,,0.00,weatherlink.com 1.10,2013-09-21 21:26:00,
2013-09-21 17:41:00,67.5,59.0,29.66,South,191,0.0,9.0,75,0.00,,,0.00,weatherlink.com 1.10,2013-09-21 21:41:00,
2013-09-21 17:56:00,67.0,60.0,29.67,South,177,0.0,6.0,77,0.00,,,0.00,weatherlink.com 1.10,2013-09-21 21:56:00,
2013-09-21 18:11:00,66.3,60.0,29.67,WSW,254,1.0,3.0,80,0.00,,,0.00,weatherlink.com 1.10,2013-09-21 22:11:00,
2013-09-21 18:26:00,65.6,60.0,29.67,SW,227,1.0,6.0,83,0.00,,,0.00,weatherlink.com 1.10,2013-09-21 22:26:00,
2013-09-21 18:41:00,64.9,61.0,29.66,SSW,210,0.0,3.0,86,0.00,,,0.00,weatherlink.com 1.10,2013-09-21 22:41:00,
2013-09-21 18:56:00,64.7,61.0,29.64,North,10,0.0,5.0,87,0.00,,,0.00,weatherlink.com 1.10,2013-09-21 22:56:00,
2013-09-21 19:11:00,64.8,61.0,29.63,SSW,200,3.0,10.0,87,0.00,,,0.00,weatherlink.com 1.10,2013-09-21 23:11:00,
2013-09-21 19:26:00,65.1,61.0,29.64,WSW,258,1.0,5.0,86,0.00,,,0.00,weatherlink.com 1.10,2013-09-21 23:26:00,
2013-09-21 19:41:00,64.9,61.0,29.64,South,190,0.0,2.0,87,0.00,,,0.00,weatherlink.com 1.10,2013-09-21 23:41:00,
2013-09-21 19:56:00,65.0,61.0,29.65,North,360,0.0,5.0,87,0.00,,,0.00,weatherlink.com 1.10,2013-09-21 23:56:00,
2013-09-21 20:11:00,65.3,61.0,29.64,SSE,147,0.0,10.0,86,0.00,,,0.00,weatherlink.com 1.10,2013-09-22 00:11:00,
2013-09-21 20:26:00,65.2,60.0,29.64,South,186,3.0,8.0,83,0.00,,,0.00,weatherlink.com 1.10,2013-09-22 00:26:00,
2013-09-21 20:41:00,65.7,60.0,29.63,West,271,0.0,3.0,83,0.00,,,0.00,weatherlink.com 1.10,2013-09-22 00:41:00,
2013-09-21 20:56:00,65.9,60.0,29.63,SSW,194,5.0,14.0,82,0.00,,,0.00,weatherlink.com 1.10,2013-09-22 00:56:00,
2013-09-21 21:11:00,65.7,60.0,29.62,WNW,284,1.0,5.0,82,0.00,,,0.00,weatherlink.com 1.10,2013-09-22 01:11:00,
2013-09-21 21:26:00,65.6,60.0,29.62,SSW,192,0.0,6.0,82,0.00,,,0.00,weatherlink.com 1.10,2013-09-22 01:26:00,
2013-09-21 21:41:00,65.4,60.0,29.62,SW,217,0.0,5.0,83,0.00,,,0.00,weatherlink.com 1.10,2013-09-22 01:41:00,
2013-09-21 21:56:00,65.4,60.0,29.62,South,182,0.0,8.0,82,0.00,,,0.00,weatherlink.com 1.10,2013-09-22 01:56:00,
2013-09-21 22:11:00,65.6,60.0,29.61,SSW,193,1.0,9.0,81,0.00,,,0.00,weatherlink.com 1.10,2013-09-22 02:11:00,
2013-09-21 22:26:00,65.8,60.0,29.62,SSW,209,3.0,15.0,82,0.00,,,0.00,weatherlink.com 1.10,2013-09-22 02:26:00,
2013-09-21 22:41:00,65.7,60.0,29.61,NE,44,2.0,4.0,81,0.00,,,0.00,weatherlink.com 1.10,2013-09-22 02:41:00,
2013-09-21 22:56:00,65.7,60.0,29.60,East,96,0.0,7.0,81,0.00,,,0.00,weatherlink.com 1.10,2013-09-22 02:56:00,
2013-09-21 23:11:00,65.8,60.0,29.59,ENE,67,0.0,6.0,81,0.00,,,0.00,weatherlink.com 1.10,2013-09-22 03:11:00,
2013-09-21 23:26:00,65.5,60.0,29.59,SSW,207,1.0,3.0,81,0.00,,,0.00,weatherlink.com 1.10,2013-09-22 03:26:00,
2013-09-21 23:41:00,65.3,60.0,29.59,NW,321,0.0,7.0,83,0.00,,,0.00,weatherlink.com 1.10,2013-09-22 03:41:00,
2013-09-21 23:56:00,64.8,61.0,29.58,NNE,32,0.0,6.0,86,0.00,,,0.00,weatherlink.com 1.10,2013-09-22 03:56:00,